Time;durP1;ratioP1;P1;durP2;ratioP2;P2;SDS_P1;SDS_P2;PMS_P1;PMS_P2;Temp;Humidity;BMP_temperature;BMP_pressure;BME280_temperature;BME280_humidity;BME280_pressure;Samples;Min_cycle;Max_cycle;Signal;HPM_P1;HPM_P2
2022/01/17 00:00:19;;;;;;;11.48;1.63;;;;;;;;;;5128781;27;20528;-65
2022/01/17 00:02:49;;;;;;;16.27;2.17;;;;;;;;;;5132502;27;20058;-67
2022/01/17 00:05:16;;;;;;;12.13;1.70;;;;;;;;;;5139448;27;20058;-65
2022/01/17 00:07:42;;;;;;;12.20;2.03;;;;;;;;;;5141834;27;20191;-65
2022/01/17 00:10:09;;;;;;;11.57;1.85;;;;;;;;;;5131523;27;20142;-64
2022/01/17 00:12:38;;;;;;;11.93;2.10;;;;;;;;;;5152903;27;20050;-64
2022/01/17 00:15:15;;;;;;;21.98;2.08;;;;;;;;;;5143559;27;20065;-64
2022/01/17 00:17:44;;;;;;;13.13;2.33;;;;;;;;;;5132095;27;20051;-65
2022/01/17 00:20:14;;;;;;;14.45;2.38;;;;;;;;;;5132254;27;20056;-65
2022/01/17 00:22:40;;;;;;;16.77;2.30;;;;;;;;;;5142604;27;20051;-64
2022/01/17 00:25:07;;;;;;;11.73;2.25;;;;;;;;;;5149647;27;20055;-65
2022/01/17 00:27:33;;;;;;;14.77;2.17;;;;;;;;;;5133037;27;20056;-64
2022/01/17 00:30:02;;;;;;;14.05;2.05;;;;;;;;;;5143876;27;20051;-65
2022/01/17 00:32:29;;;;;;;17.92;2.90;;;;;;;;;;5142563;27;20128;-64
2022/01/17 00:34:56;;;;;;;14.82;2.15;;;;;;;;;;5132844;27;20147;-64
2022/01/17 00:37:23;;;;;;;18.20;2.38;;;;;;;;;;5131126;27;20157;-65
2022/01/17 00:39:49;;;;;;;16.33;2.40;;;;;;;;;;5131355;27;20062;-65
2022/01/17 00:42:15;;;;;;;11.30;1.88;;;;;;;;;;5132910;27;20643;-65
2022/01/17 00:44:43;;;;;;;11.05;2.90;;;;;;;;;;5140684;27;20058;-65
2022/01/17 00:47:09;;;;;;;17.60;2.30;;;;;;;;;;5135460;27;21408;-65
2022/01/17 00:49:35;;;;;;;14.50;2.47;;;;;;;;;;5145860;27;20055;-64
2022/01/17 00:52:02;;;;;;;18.45;1.98;;;;;;;;;;5152769;27;20051;-65
2022/01/17 00:54:31;;;;;;;11.13;1.90;;;;;;;;;;5153206;27;20519;-65
2022/01/17 00:56:58;;;;;;;11.52;2.20;;;;;;;;;;5149512;27;20055;-66
2022/01/17 00:59:24;;;;;;;12.02;1.90;;;;;;;;;;5153224;27;20052;-65
2022/01/17 01:01:50;;;;;;;14.77;2.38;;;;;;;;;;5145033;27;20502;-64
2022/01/17 01:04:17;;;;;;;15.02;2.10;;;;;;;;;;5132137;27;20055;-65
2022/01/17 01:06:43;;;;;;;16.85;2.05;;;;;;;;;;5144810;27;20059;-65
2022/01/17 01:09:10;;;;;;;19.17;2.00;;;;;;;;;;5152511;27;20138;-65
2022/01/17 01:11:36;;;;;;;13.13;1.70;;;;;;;;;;5150777;27;20051;-65
2022/01/17 01:14:03;;;;;;;15.43;1.80;;;;;;;;;;5132033;27;20060;-65
2022/01/17 01:16:35;;;;;;;11.77;2.00;;;;;;;;;;5132038;27;20047;-65
2022/01/17 01:29:32;;;;;;;16.63;2.30;;;;;;;;;;5131313;27;20058;-65
2022/01/17 01:32:03;;;;;;;24.98;2.97;;;;;;;;;;5142143;27;20057;-65
2022/01/17 01:34:40;;;;;;;12.98;1.77;;;;;;;;;;5137645;27;20052;-65
2022/01/17 01:37:06;;;;;;;13.55;2.83;;;;;;;;;;5152276;27;20051;-65
2022/01/17 01:39:33;;;;;;;16.55;2.22;;;;;;;;;;5152747;27;20141;-65
2022/01/17 01:42:00;;;;;;;22.33;2.67;;;;;;;;;;5139184;27;20050;-65
2022/01/17 01:44:27;;;;;;;14.18;1.92;;;;;;;;;;5131154;27;20074;-65
2022/01/17 01:46:54;;;;;;;23.48;3.25;;;;;;;;;;5137940;27;20059;-64
2022/01/17 01:49:21;;;;;;;17.05;4.35;;;;;;;;;;5150637;27;20559;-65
2022/01/17 01:51:48;;;;;;;16.95;2.17;;;;;;;;;;5151227;27;20142;-65
2022/01/17 01:54:15;;;;;;;15.93;2.08;;;;;;;;;;5151942;27;20580;-65
2022/01/17 01:56:45;;;;;;;13.30;1.52;;;;;;;;;;5150313;27;20051;-65
2022/01/17 01:59:11;;;;;;;17.08;2.28;;;;;;;;;;5151950;27;20146;-65
2022/01/17 02:01:38;;;;;;;22.52;3.33;;;;;;;;;;5151557;27;20539;-65
2022/01/17 02:04:05;;;;;;;18.85;3.03;;;;;;;;;;5136546;27;20044;-65
2022/01/17 02:06:34;;;;;;;17.20;2.20;;;;;;;;;;5147932;27;20145;-65
2022/01/17 02:09:01;;;;;;;15.82;2.42;;;;;;;;;;5147336;27;20139;-65
2022/01/17 02:11:27;;;;;;;11.43;1.75;;;;;;;;;;5130476;27;20052;-65
2022/01/17 02:13:54;;;;;;;23.08;1.98;;;;;;;;;;5146896;27;20209;-65
2022/01/17 02:16:22;;;;;;;8.90;2.22;;;;;;;;;;5149983;27;20096;-64
2022/01/17 02:18:49;;;;;;;13.15;3.10;;;;;;;;;;5151597;27;20138;-65
2022/01/17 02:23:43;;;;;;;15.75;2.05;;;;;;;;;;5145080;27;20057;-64
2022/01/17 02:26:09;;;;;;;16.42;2.33;;;;;;;;;;5148762;27;20055;-65
2022/01/17 02:28:37;;;;;;;12.07;1.80;;;;;;;;;;5130544;27;20598;-65
2022/01/17 02:31:04;;;;;;;17.90;1.85;;;;;;;;;;5130464;27;20058;-65
2022/01/17 02:33:32;;;;;;;14.98;1.70;;;;;;;;;;5129968;27;20083;-65
2022/01/17 02:35:58;;;;;;;19.73;1.98;;;;;;;;;;5130231;27;20052;-65
2022/01/17 02:38:24;;;;;;;14.10;1.98;;;;;;;;;;5130816;27;20047;-65
2022/01/17 02:40:51;;;;;;;13.98;2.03;;;;;;;;;;5130170;27;20098;-65
2022/01/17 02:43:20;;;;;;;18.05;2.13;;;;;;;;;;5141767;27;20043;-65
2022/01/17 02:48:19;;;;;;;19.52;2.47;;;;;;;;;;5150554;27;45159;-65
2022/01/17 02:50:45;;;;;;;16.52;1.80;;;;;;;;;;5142105;27;20501;-65
2022/01/17 02:53:12;;;;;;;18.30;2.13;;;;;;;;;;5130538;27;20493;-65
2022/01/17 02:55:43;;;;;;;13.25;2.88;;;;;;;;;;5130319;27;20521;-65
2022/01/17 02:58:09;;;;;;;24.13;2.55;;;;;;;;;;5130505;27;20079;-65
2022/01/17 03:00:35;;;;;;;14.75;2.28;;;;;;;;;;5130067;27;20058;-64
2022/01/17 03:03:02;;;;;;;18.67;2.50;;;;;;;;;;5136007;27;20047;-65
2022/01/17 03:05:28;;;;;;;13.45;2.38;;;;;;;;;;5150124;27;20130;-65
2022/01/17 03:07:55;;;;;;;19.20;2.47;;;;;;;;;;5150658;27;20601;-65
2022/01/17 03:12:51;;;;;;;18.35;1.92;;;;;;;;;;5132648;27;20055;-65
2022/01/17 03:15:17;;;;;;;14.80;2.35;;;;;;;;;;5150799;27;20062;-64
2022/01/17 03:17:43;;;;;;;19.85;3.40;;;;;;;;;;5151076;27;20501;-65
2022/01/17 03:20:10;;;;;;;15.25;2.17;;;;;;;;;;5150922;27;20055;-64
2022/01/17 03:22:39;;;;;;;11.52;1.50;;;;;;;;;;5130122;27;20047;-65
2022/01/17 03:25:05;;;;;;;17.42;2.25;;;;;;;;;;5140809;27;20055;-66
2022/01/17 03:27:32;;;;;;;10.27;1.45;;;;;;;;;;5130101;27;20058;-65
2022/01/17 03:29:58;;;;;;;9.98;2.08;;;;;;;;;;5129026;27;20052;-64
2022/01/17 03:32:24;;;;;;;15.40;1.98;;;;;;;;;;5129783;27;20055;-65
2022/01/17 03:34:50;;;;;;;15.18;1.90;;;;;;;;;;5129573;27;20055;-65
2022/01/17 03:37:17;;;;;;;18.58;2.42;;;;;;;;;;5129843;27;20147;-64
2022/01/17 03:39:43;;;;;;;18.80;2.03;;;;;;;;;;5129054;27;20058;-65
2022/01/17 03:42:09;;;;;;;15.45;1.90;;;;;;;;;;5133145;27;20047;-65
2022/01/17 03:44:36;;;;;;;15.27;1.88;;;;;;;;;;5149824;27;20145;-65
2022/01/17 03:47:02;;;;;;;8.88;1.60;;;;;;;;;;5152827;27;20493;-64
2022/01/17 03:49:29;;;;;;;15.07;2.17;;;;;;;;;;5154052;27;20081;-65
2022/01/17 03:51:55;;;;;;;17.45;2.08;;;;;;;;;;5150139;27;20071;-63
2022/01/17 03:54:21;;;;;;;24.77;2.88;;;;;;;;;;5130876;27;20520;-64
2022/01/17 03:56:47;;;;;;;16.70;2.15;;;;;;;;;;5132111;27;20047;-63
2022/01/17 03:59:14;;;;;;;8.30;1.63;;;;;;;;;;5131759;27;20061;-64
2022/01/17 04:01:40;;;;;;;12.55;2.05;;;;;;;;;;5131501;27;20057;-64
2022/01/17 04:04:06;;;;;;;21.73;1.90;;;;;;;;;;5131994;27;20138;-63
2022/01/17 04:06:34;;;;;;;12.65;2.35;;;;;;;;;;5132779;27;20091;-63
2022/01/17 04:09:00;;;;;;;18.65;2.28;;;;;;;;;;5132267;27;20055;-64
2022/01/17 04:11:27;;;;;;;17.50;1.90;;;;;;;;;;5131795;27;20056;-64
2022/01/17 04:13:53;;;;;;;12.45;1.88;;;;;;;;;;5137073;27;20056;-64
2022/01/17 04:16:19;;;;;;;17.35;1.75;;;;;;;;;;5131444;27;20051;-64
2022/01/17 04:18:46;;;;;;;19.20;2.67;;;;;;;;;;5130669;27;20091;-64
2022/01/17 04:21:12;;;;;;;18.75;2.33;;;;;;;;;;5131548;27;20085;-64
2022/01/17 04:23:38;;;;;;;18.95;2.35;;;;;;;;;;5142614;27;20051;-64
2022/01/17 04:26:05;;;;;;;13.60;1.90;;;;;;;;;;5152218;27;20055;-64
2022/01/17 04:28:31;;;;;;;15.57;2.17;;;;;;;;;;5152249;27;20051;-64
2022/01/17 04:30:59;;;;;;;14.95;2.30;;;;;;;;;;5151298;27;20593;-63
2022/01/17 04:33:25;;;;;;;20.80;2.40;;;;;;;;;;5143026;27;20048;-63
2022/01/17 04:35:51;;;;;;;15.00;2.10;;;;;;;;;;5142277;27;20750;-64
2022/01/17 04:38:18;;;;;;;16.50;2.50;;;;;;;;;;5152337;27;20058;-63
2022/01/17 04:40:47;;;;;;;15.32;2.55;;;;;;;;;;5133136;27;20054;-64
2022/01/17 04:43:33;;;;;;;17.17;3.35;;;;;;;;;;5138699;27;20051;-64
2022/01/17 04:45:59;;;;;;;20.55;3.13;;;;;;;;;;5151785;27;20087;-63
2022/01/17 04:48:26;;;;;;;15.25;2.60;;;;;;;;;;5151509;27;20135;-63
2022/01/17 04:50:52;;;;;;;12.85;2.60;;;;;;;;;;5150430;27;20142;-64
2022/01/17 04:53:20;;;;;;;20.67;2.53;;;;;;;;;;5134564;27;20062;-64
2022/01/17 04:55:47;;;;;;;18.15;2.38;;;;;;;;;;5151697;27;20519;-64
2022/01/17 04:58:14;;;;;;;12.55;2.33;;;;;;;;;;5149207;27;20146;-64
2022/01/17 05:00:46;;;;;;;11.15;2.50;;;;;;;;;;5130493;27;20104;-64
2022/01/17 05:03:17;;;;;;;19.05;2.70;;;;;;;;;;5131419;27;20569;-64
2022/01/17 05:05:43;;;;;;;21.95;3.03;;;;;;;;;;5131269;27;20060;-64
2022/01/17 05:08:10;;;;;;;13.80;2.90;;;;;;;;;;5130500;27;20048;-64
2022/01/17 05:10:36;;;;;;;16.48;2.85;;;;;;;;;;5132256;27;20062;-63
2022/01/17 05:13:02;;;;;;;14.43;2.70;;;;;;;;;;5130579;27;20079;-63
2022/01/17 05:15:36;;;;;;;10.80;2.40;;;;;;;;;;5139551;27;20075;-63
2022/01/17 05:20:36;;;;;;;18.05;3.50;;;;;;;;;;5151623;27;20134;-64
2022/01/17 05:23:02;;;;;;;19.27;2.97;;;;;;;;;;5149015;27;20162;-63
2022/01/17 05:25:29;;;;;;;26.40;3.70;;;;;;;;;;5152150;27;20109;-64
2022/01/17 05:27:55;;;;;;;19.65;3.40;;;;;;;;;;5151676;27;20051;-64
2022/01/17 05:30:22;;;;;;;19.95;3.83;;;;;;;;;;5146286;27;20062;-64
2022/01/17 05:32:50;;;;;;;22.35;3.58;;;;;;;;;;5130455;27;20139;-63
2022/01/17 05:35:16;;;;;;;16.58;3.10;;;;;;;;;;5131021;27;20044;-64
2022/01/17 05:37:43;;;;;;;22.70;3.50;;;;;;;;;;5130871;27;20060;-63
2022/01/17 05:40:11;;;;;;;17.05;2.85;;;;;;;;;;5131131;27;20052;-64
2022/01/17 05:42:37;;;;;;;20.50;3.20;;;;;;;;;;5130944;27;20052;-64
2022/01/17 05:45:04;;;;;;;17.15;3.90;;;;;;;;;;5130115;27;20058;-63
2022/01/17 05:47:31;;;;;;;16.90;4.47;;;;;;;;;;5130895;27;20056;-63
2022/01/17 05:49:59;;;;;;;25.73;3.47;;;;;;;;;;5131325;27;20062;-64
2022/01/17 05:52:25;;;;;;;13.57;2.97;;;;;;;;;;5130500;27;20658;-63
2022/01/17 05:54:52;;;;;;;16.35;4.13;;;;;;;;;;5146204;27;20261;-64
2022/01/17 05:57:19;;;;;;;23.00;4.45;;;;;;;;;;5131848;27;20047;-64
2022/01/17 05:59:45;;;;;;;20.65;4.07;;;;;;;;;;5151082;27;20055;-64
2022/01/17 06:02:11;;;;;;;18.42;3.95;;;;;;;;;;5150042;27;20057;-64
2022/01/17 06:04:38;;;;;;;21.75;4.28;;;;;;;;;;5150543;27;20588;-64
2022/01/17 06:07:04;;;;;;;24.65;4.95;;;;;;;;;;5149197;27;20063;-64
2022/01/17 06:09:31;;;;;;;14.90;4.22;;;;;;;;;;5150594;27;20464;-63
2022/01/17 06:11:57;;;;;;;16.98;4.20;;;;;;;;;;5142769;27;20062;-64
2022/01/17 06:14:24;;;;;;;27.25;4.82;;;;;;;;;;5133621;27;20051;-65
2022/01/17 06:16:50;;;;;;;23.10;4.60;;;;;;;;;;5148471;27;20047;-64
2022/01/17 06:19:17;;;;;;;26.48;4.32;;;;;;;;;;5150124;27;20051;-63
2022/01/17 06:21:43;;;;;;;23.08;5.55;;;;;;;;;;5149589;27;20081;-63
2022/01/17 06:24:14;;;;;;;24.50;5.28;;;;;;;;;;5150263;27;20059;-64
2022/01/17 06:26:41;;;;;;;19.10;5.22;;;;;;;;;;5138971;27;20524;-63
2022/01/17 06:29:08;;;;;;;17.35;4.68;;;;;;;;;;5141936;27;20058;-63
2022/01/17 06:31:35;;;;;;;23.00;5.60;;;;;;;;;;5150294;27;20575;-63
2022/01/17 06:34:02;;;;;;;21.25;6.60;;;;;;;;;;5134703;27;20051;-63
2022/01/17 06:36:29;;;;;;;32.75;7.63;;;;;;;;;;5129568;27;20057;-63
2022/01/17 06:38:56;;;;;;;22.90;7.28;;;;;;;;;;5128956;27;20054;-64
2022/01/17 06:41:22;;;;;;;27.77;6.90;;;;;;;;;;5130338;27;20616;-64
2022/01/17 06:43:49;;;;;;;19.13;6.90;;;;;;;;;;5129130;27;20082;-63
2022/01/17 06:46:15;;;;;;;29.40;7.70;;;;;;;;;;5133903;27;20043;-64
2022/01/17 06:48:42;;;;;;;23.15;7.60;;;;;;;;;;5148108;27;20138;-64
2022/01/17 06:51:09;;;;;;;24.70;8.15;;;;;;;;;;5129739;27;20055;-63
2022/01/17 06:53:35;;;;;;;24.95;8.63;;;;;;;;;;5129494;27;20519;-64
2022/01/17 06:56:01;;;;;;;22.50;9.38;;;;;;;;;;5128658;27;20047;-63
2022/01/17 06:58:28;;;;;;;25.50;9.63;;;;;;;;;;5145620;27;20061;-63
2022/01/17 07:00:54;;;;;;;36.45;10.52;;;;;;;;;;5148505;27;20055;-63
2022/01/17 07:03:21;;;;;;;30.85;10.57;;;;;;;;;;5148070;27;20051;-63
2022/01/17 07:05:47;;;;;;;31.98;10.25;;;;;;;;;;5140467;27;20482;-64
2022/01/17 07:08:14;;;;;;;24.77;10.07;;;;;;;;;;5129162;27;20052;-63
2022/01/17 07:10:40;;;;;;;27.85;10.55;;;;;;;;;;5141484;27;20073;-63
2022/01/17 07:13:06;;;;;;;36.55;10.82;;;;;;;;;;5141029;27;20155;-63
2022/01/17 07:15:36;;;;;;;34.17;10.30;;;;;;;;;;5141728;27;20047;-64
2022/01/17 07:18:02;;;;;;;31.65;11.05;;;;;;;;;;5160291;27;20074;-63
2022/01/17 07:20:29;;;;;;;28.38;11.02;;;;;;;;;;5171587;27;20049;-64
2022/01/17 07:22:55;;;;;;;31.25;10.48;;;;;;;;;;5149636;27;20047;-63
2022/01/17 07:25:21;;;;;;;31.48;11.52;;;;;;;;;;5132842;27;20060;-64
2022/01/17 07:27:47;;;;;;;29.83;11.02;;;;;;;;;;5146909;27;20055;-64
2022/01/17 07:30:14;;;;;;;27.73;11.15;;;;;;;;;;5150807;27;20056;-63
2022/01/17 07:32:40;;;;;;;38.00;12.02;;;;;;;;;;5131851;27;20564;-63
2022/01/17 07:35:07;;;;;;;31.80;11.35;;;;;;;;;;5131713;27;20122;-63
2022/01/17 07:37:34;;;;;;;35.22;11.52;;;;;;;;;;5144199;27;20070;-63
2022/01/17 07:40:00;;;;;;;25.65;10.98;;;;;;;;;;5149494;27;20063;-64
2022/01/17 07:42:27;;;;;;;30.08;12.15;;;;;;;;;;5143928;27;20043;-63
2022/01/17 07:44:55;;;;;;;29.05;11.27;;;;;;;;;;5132023;27;20048;-63
2022/01/17 07:47:38;;;;;;;32.05;10.60;;;;;;;;;;5131273;27;20055;-63
2022/01/17 07:50:05;;;;;;;42.60;13.32;;;;;;;;;;5139019;27;20445;-64
2022/01/17 07:52:33;;;;;;;;;;;;;;;;;;5151365;27;20142;-65
2022/01/17 07:54:59;;;;;;;28.30;9.90;;;;;;;;;;5139101;27;44380;-64
2022/01/17 07:57:25;;;;;;;32.65;10.13;;;;;;;;;;5138041;27;20501;-64
2022/01/17 07:59:52;;;;;;;28.75;8.25;;;;;;;;;;5147776;27;20551;-64
2022/01/17 08:02:18;;;;;;;28.27;7.97;;;;;;;;;;5136965;27;20047;-64
2022/01/17 08:04:45;;;;;;;23.15;7.93;;;;;;;;;;5137158;27;20579;-64
2022/01/17 08:07:12;;;;;;;30.63;7.00;;;;;;;;;;5139878;27;20062;-63
2022/01/17 08:09:38;;;;;;;32.13;6.50;;;;;;;;;;5144976;27;21332;-64
2022/01/17 08:12:05;;;;;;;41.00;7.30;;;;;;;;;;5141400;27;20051;-64
2022/01/17 08:14:32;;;;;;;26.55;6.70;;;;;;;;;;5149208;27;20052;-64
2022/01/17 08:16:58;;;;;;;16.25;5.13;;;;;;;;;;5147914;27;20059;-64
2022/01/17 08:19:25;;;;;;;24.25;5.50;;;;;;;;;;5132130;27;20055;-64
2022/01/17 08:21:58;;;;;;;25.90;4.95;;;;;;;;;;5131926;27;20051;-64
2022/01/17 08:24:24;;;;;;;22.70;5.25;;;;;;;;;;5135987;27;20051;-63
2022/01/17 08:26:50;;;;;;;35.13;5.88;;;;;;;;;;5137446;27;20062;-64
2022/01/17 08:29:17;;;;;;;25.48;4.45;;;;;;;;;;5130819;27;20052;-64
2022/01/17 08:31:46;;;;;;;20.95;4.65;;;;;;;;;;5130862;27;20142;-64
2022/01/17 08:34:13;;;;;;;26.52;5.65;;;;;;;;;;5131617;27;20051;-64
2022/01/17 08:36:40;;;;;;;26.88;5.07;;;;;;;;;;5131233;27;20064;-64
2022/01/17 08:39:07;;;;;;;24.65;4.15;;;;;;;;;;5141230;27;20049;-64
2022/01/17 08:41:33;;;;;;;29.00;4.40;;;;;;;;;;5151397;27;20592;-64
2022/01/17 08:44:00;;;;;;;23.25;5.63;;;;;;;;;;5130700;27;20055;-64
2022/01/17 08:46:26;;;;;;;26.10;4.10;;;;;;;;;;5131154;27;20062;-64
2022/01/17 08:48:53;;;;;;;22.58;4.10;;;;;;;;;;5137147;27;20051;-64
2022/01/17 08:51:19;;;;;;;32.88;5.10;;;;;;;;;;5135216;27;20055;-64
2022/01/17 08:53:46;;;;;;;21.50;4.25;;;;;;;;;;5144297;27;20055;-63
2022/01/17 08:56:12;;;;;;;13.98;3.72;;;;;;;;;;5142189;27;20055;-64
2022/01/17 08:58:38;;;;;;;19.70;4.30;;;;;;;;;;5130759;27;20053;-64
2022/01/17 09:01:05;;;;;;;25.20;3.50;;;;;;;;;;5138760;27;20071;-65
2022/01/17 09:03:31;;;;;;;21.70;3.58;;;;;;;;;;5156226;27;20063;-65
2022/01/17 09:05:58;;;;;;;30.17;4.95;;;;;;;;;;5145896;27;20055;-64
2022/01/17 09:08:24;;;;;;;31.02;4.47;;;;;;;;;;5151252;27;20043;-65
2022/01/17 09:10:54;;;;;;;23.23;3.70;;;;;;;;;;5149950;27;20534;-66
2022/01/17 09:13:20;;;;;;;22.30;3.87;;;;;;;;;;5107850;27;1034232;-66
2022/01/17 09:15:47;;;;;;;28.08;3.88;;;;;;;;;;5137652;27;20062;-65
2022/01/17 09:18:14;;;;;;;20.80;4.10;;;;;;;;;;5141208;27;20110;-65
2022/01/17 09:20:40;;;;;;;26.95;4.25;;;;;;;;;;5143002;27;20101;-65
2022/01/17 09:23:07;;;;;;;28.58;4.53;;;;;;;;;;5131803;27;20048;-65
2022/01/17 09:25:34;;;;;;;23.15;3.85;;;;;;;;;;5130621;27;20082;-65
2022/01/17 09:28:00;;;;;;;20.27;3.78;;;;;;;;;;5143063;27;21851;-65
2022/01/17 09:30:26;;;;;;;27.10;4.03;;;;;;;;;;5131860;27;20440;-65
2022/01/17 09:32:53;;;;;;;34.88;4.45;;;;;;;;;;5129630;27;20489;-65
2022/01/17 09:35:19;;;;;;;23.73;3.40;;;;;;;;;;5131714;27;20129;-65
2022/01/17 09:37:46;;;;;;;26.58;4.07;;;;;;;;;;5140176;27;20051;-65
2022/01/17 09:40:12;;;;;;;29.25;5.00;;;;;;;;;;5133210;27;20929;-65
2022/01/17 09:42:39;;;;;;;28.95;3.30;;;;;;;;;;5136546;27;20060;-65
2022/01/17 09:45:07;;;;;;;22.60;4.43;;;;;;;;;;5132800;27;20058;-65
2022/01/17 09:47:34;;;;;;;24.33;4.80;;;;;;;;;;5131355;27;20043;-65
2022/01/17 09:50:06;;;;;;;33.72;4.30;;;;;;;;;;5133521;27;20056;-65
2022/01/17 09:52:35;;;;;;;24.98;3.72;;;;;;;;;;5135708;27;20138;-65
2022/01/17 09:55:10;;;;;;;34.65;4.47;;;;;;;;;;5135840;27;20055;-65
2022/01/17 09:57:42;;;;;;;24.67;3.63;;;;;;;;;;5133077;27;22335;-65
2022/01/17 10:00:10;;;;;;;29.83;3.95;;;;;;;;;;5134107;27;20105;-65
2022/01/17 10:02:36;;;;;;;22.45;3.80;;;;;;;;;;5131833;27;20167;-65
2022/01/17 10:05:06;;;;;;;20.92;3.50;;;;;;;;;;5135030;27;20047;-65
2022/01/17 10:07:51;;;;;;;28.20;4.35;;;;;;;;;;5135531;27;20146;-65
2022/01/17 10:10:32;;;;;;;32.92;4.75;;;;;;;;;;5139352;27;20411;-65
2022/01/17 10:13:03;;;;;;;27.98;3.58;;;;;;;;;;5134005;27;20052;-65
2022/01/17 10:15:43;;;;;;;27.00;3.65;;;;;;;;;;5133891;27;20131;-65
2022/01/17 10:18:22;;;;;;;26.10;4.55;;;;;;;;;;5135969;27;20173;-65
2022/01/17 10:20:54;;;;;;;29.98;3.85;;;;;;;;;;5141256;27;20057;-65
2022/01/17 10:23:39;;;;;;;27.95;3.63;;;;;;;;;;5140038;27;20055;-64
2022/01/17 10:26:13;;;;;;;29.67;4.00;;;;;;;;;;5141373;27;20058;-66
2022/01/17 10:29:08;;;;;;;25.65;4.90;;;;;;;;;;5138703;27;20079;-65
2022/01/17 10:37:12;;;;;;;21.25;3.08;;;;;;;;;;5146233;27;20142;-66
2022/01/17 10:39:51;;;;;;;20.63;4.05;;;;;;;;;;5131758;27;20051;-65
2022/01/17 10:42:29;;;;;;;27.45;4.00;;;;;;;;;;5132817;27;20135;-65
2022/01/17 10:44:56;;;;;;;;;;;;;;;;;;5143183;27;20048;-65
2022/01/17 10:47:24;;;;;;;29.50;3.63;;;;;;;;;;5139808;27;43719;-65
2022/01/17 10:49:56;;;;;;;22.77;3.33;;;;;;;;;;5139013;27;20126;-65
2022/01/17 10:52:28;;;;;;;23.15;3.78;;;;;;;;;;5135359;27;20586;-65
2022/01/17 10:54:56;;;;;;;25.73;3.60;;;;;;;;;;5135294;27;20135;-66
2022/01/17 10:57:23;;;;;;;20.42;3.33;;;;;;;;;;5137294;27;20055;-66
2022/01/17 10:59:51;;;;;;;20.38;3.67;;;;;;;;;;5139135;27;20047;-64
2022/01/17 11:02:18;;;;;;;28.50;4.10;;;;;;;;;;5144120;27;20054;-65
2022/01/17 11:04:48;;;;;;;27.88;3.05;;;;;;;;;;5133392;27;20105;-66
2022/01/17 11:07:14;;;;;;;18.42;3.22;;;;;;;;;;5142629;27;20109;-65
2022/01/17 11:09:42;;;;;;;16.42;3.13;;;;;;;;;;5129661;27;20121;-65
2022/01/17 11:12:12;;;;;;;22.52;3.03;;;;;;;;;;5135224;27;20055;-65
2022/01/17 11:14:39;;;;;;;21.15;3.70;;;;;;;;;;5128458;27;20429;-65
2022/01/17 11:17:20;;;;;;;18.92;3.05;;;;;;;;;;5140482;27;20046;-65
2022/01/17 11:20:03;;;;;;;20.63;3.10;;;;;;;;;;5140258;27;20047;-65
2022/01/17 11:22:29;;;;;;;22.95;3.35;;;;;;;;;;5142846;27;20047;-65
2022/01/17 11:24:59;;;;;;;22.02;3.55;;;;;;;;;;5131700;27;20054;-65
2022/01/17 11:27:25;;;;;;;26.33;3.25;;;;;;;;;;5130090;27;20139;-65
2022/01/17 11:29:52;;;;;;;23.00;2.97;;;;;;;;;;5136424;27;20049;-65
2022/01/17 11:32:18;;;;;;;14.80;2.35;;;;;;;;;;5141748;27;20062;-66
2022/01/17 11:34:46;;;;;;;22.10;3.00;;;;;;;;;;5137915;27;20051;-66
2022/01/17 11:37:12;;;;;;;27.45;2.88;;;;;;;;;;5135032;27;20047;-66
2022/01/17 11:39:46;;;;;;;25.83;3.33;;;;;;;;;;5134009;27;20513;-66
2022/01/17 11:42:32;;;;;;;24.23;3.28;;;;;;;;;;5131798;27;20054;-66
2022/01/17 11:44:59;;;;;;;20.95;3.00;;;;;;;;;;5130495;27;20135;-66
2022/01/17 11:47:44;;;;;;;23.67;2.95;;;;;;;;;;5129722;27;20060;-66
2022/01/17 11:50:25;;;;;;;22.60;4.15;;;;;;;;;;5136663;27;20142;-66
2022/01/17 11:52:51;;;;;;;25.45;3.25;;;;;;;;;;5145715;27;20158;-66
2022/01/17 11:55:36;;;;;;;27.58;3.88;;;;;;;;;;5131130;27;20489;-66
2022/01/17 11:58:15;;;;;;;20.52;3.20;;;;;;;;;;5136123;27;20058;-66
2022/01/17 12:00:41;;;;;;;30.35;3.47;;;;;;;;;;5132800;27;20052;-66
2022/01/17 12:03:18;;;;;;;25.75;3.13;;;;;;;;;;5133619;27;20056;-66
2022/01/17 12:05:45;;;;;;;25.23;3.30;;;;;;;;;;5142224;27;20075;-66
2022/01/17 12:08:16;;;;;;;26.75;3.38;;;;;;;;;;5142190;27;20045;-66
2022/01/17 12:10:44;;;;;;;22.60;3.30;;;;;;;;;;5136818;27;20105;-66
2022/01/17 12:13:21;;;;;;;21.23;3.45;;;;;;;;;;5139609;27;20056;-66
2022/01/17 12:15:54;;;;;;;25.52;3.30;;;;;;;;;;5136109;27;20051;-66
2022/01/17 12:18:32;;;;;;;19.20;3.08;;;;;;;;;;5133419;27;20047;-66
2022/01/17 12:21:18;;;;;;;20.77;2.78;;;;;;;;;;5135572;27;20051;-66
2022/01/17 12:23:44;;;;;;;23.75;3.58;;;;;;;;;;5147420;27;20055;-65
2022/01/17 12:26:27;;;;;;;26.25;4.03;;;;;;;;;;5145467;27;20477;-65
2022/01/17 12:28:54;;;;;;;26.90;3.47;;;;;;;;;;5135859;27;20086;-65
2022/01/17 12:31:40;;;;;;;25.50;3.45;;;;;;;;;;5137007;27;20104;-65
2022/01/17 12:34:16;;;;;;;25.55;3.60;;;;;;;;;;5136965;27;20494;-66
2022/01/17 12:36:43;;;;;;;20.85;2.90;;;;;;;;;;5147098;27;20780;-65
2022/01/17 12:39:11;;;;;;;24.25;3.70;;;;;;;;;;5138213;27;20053;-65
2022/01/17 12:41:38;;;;;;;20.20;3.40;;;;;;;;;;5139038;27;20500;-65
2022/01/17 12:44:15;;;;;;;22.23;3.15;;;;;;;;;;5133350;27;20047;-65
2022/01/17 12:46:42;;;;;;;23.02;2.60;;;;;;;;;;5131605;27;20048;-65
2022/01/17 12:49:09;;;;;;;20.52;2.60;;;;;;;;;;5147292;27;20514;-67
2022/01/17 12:51:39;;;;;;;29.60;3.20;;;;;;;;;;5132113;27;20123;-65
2022/01/17 12:54:08;;;;;;;25.92;3.47;;;;;;;;;;5137069;27;20126;-65
2022/01/17 12:56:34;;;;;;;22.88;3.28;;;;;;;;;;5141014;27;20066;-64
2022/01/17 12:59:02;;;;;;;42.08;4.45;;;;;;;;;;5142328;27;20094;-65
2022/01/17 13:01:30;;;;;;;29.93;4.00;;;;;;;;;;5145046;27;20144;-64
2022/01/17 13:04:03;;;;;;;26.42;3.35;;;;;;;;;;5139272;27;20541;-66
2022/01/17 13:06:29;;;;;;;31.27;4.03;;;;;;;;;;5131605;27;20044;-66
2022/01/17 13:08:57;;;;;;;22.33;3.85;;;;;;;;;;5137231;27;20062;-64
2022/01/17 13:11:23;;;;;;;23.35;3.28;;;;;;;;;;5137598;27;20047;-64
2022/01/17 13:13:51;;;;;;;31.35;3.90;;;;;;;;;;5137244;27;20553;-64
2022/01/17 13:16:20;;;;;;;25.75;3.83;;;;;;;;;;5133387;27;20059;-64
2022/01/17 13:18:47;;;;;;;23.00;3.22;;;;;;;;;;5129808;27;20055;-64
2022/01/17 13:21:13;;;;;;;22.90;3.40;;;;;;;;;;5143978;27;20054;-64
2022/01/17 13:23:52;;;;;;;26.50;3.45;;;;;;;;;;5142187;27;20043;-66
2022/01/17 13:26:21;;;;;;;23.15;2.83;;;;;;;;;;5136857;27;20059;-65
2022/01/17 13:28:51;;;;;;;20.65;3.35;;;;;;;;;;5139275;27;20113;-66
2022/01/17 13:31:18;;;;;;;32.30;4.20;;;;;;;;;;5135096;27;20052;-65
2022/01/17 13:33:45;;;;;;;24.48;3.70;;;;;;;;;;5147789;27;20138;-65
2022/01/17 13:36:18;;;;;;;29.65;3.83;;;;;;;;;;5142832;27;20497;-64
2022/01/17 13:38:58;;;;;;;28.95;3.25;;;;;;;;;;5137643;27;20051;-64
2022/01/17 13:41:28;;;;;;;27.85;3.47;;;;;;;;;;5135306;27;21688;-64
2022/01/17 13:43:54;;;;;;;28.10;3.17;;;;;;;;;;5143032;27;20047;-64
2022/01/17 13:46:20;;;;;;;28.25;3.70;;;;;;;;;;5138012;27;20564;-65
2022/01/17 13:48:48;;;;;;;30.60;4.40;;;;;;;;;;5137777;27;20044;-64
2022/01/17 13:51:16;;;;;;;28.07;4.73;;;;;;;;;;5141110;27;20055;-64
2022/01/17 13:53:42;;;;;;;28.73;4.03;;;;;;;;;;5143269;27;20051;-64
2022/01/17 13:56:09;;;;;;;35.47;4.55;;;;;;;;;;5151495;27;20477;-64
2022/01/17 13:58:38;;;;;;;41.83;6.15;;;;;;;;;;5143825;27;20804;-65
2022/01/17 14:01:11;;;;;;;28.75;5.20;;;;;;;;;;5131546;27;20163;-64
2022/01/17 14:03:41;;;;;;;24.20;4.35;;;;;;;;;;5130425;27;20059;-64
2022/01/17 14:06:12;;;;;;;31.23;3.97;;;;;;;;;;5130612;27;20079;-65
2022/01/17 14:08:42;;;;;;;30.17;4.70;;;;;;;;;;5130970;27;20063;-65
2022/01/17 14:11:10;;;;;;;25.90;4.05;;;;;;;;;;5130555;27;20113;-66
2022/01/17 14:13:38;;;;;;;24.75;3.65;;;;;;;;;;5129449;27;20055;-65
2022/01/17 14:16:13;;;;;;;33.05;4.25;;;;;;;;;;5143088;27;20252;-65
2022/01/17 14:18:40;;;;;;;30.02;3.38;;;;;;;;;;5150276;27;20055;-64
2022/01/17 14:21:07;;;;;;;35.17;4.55;;;;;;;;;;5150351;27;20055;-65
2022/01/17 14:23:36;;;;;;;36.13;4.40;;;;;;;;;;5151233;27;20047;-65
2022/01/17 14:26:04;;;;;;;26.02;3.67;;;;;;;;;;5151230;27;20472;-65
2022/01/17 14:28:31;;;;;;;29.90;4.13;;;;;;;;;;5151227;27;20057;-64
2022/01/17 14:30:57;;;;;;;25.15;3.72;;;;;;;;;;5150837;27;20071;-64
2022/01/17 14:33:25;;;;;;;26.75;4.13;;;;;;;;;;5151206;27;20481;-64
2022/01/17 14:36:09;;;;;;;23.85;4.68;;;;;;;;;;5149948;27;20055;-64
2022/01/17 14:38:49;;;;;;;34.60;4.80;;;;;;;;;;5150578;27;20144;-64
2022/01/17 14:41:16;;;;;;;38.08;4.93;;;;;;;;;;5137667;27;20058;-66
2022/01/17 14:43:42;;;;;;;32.45;4.38;;;;;;;;;;5130213;27;20056;-65
2022/01/17 14:46:28;;;;;;;28.65;3.55;;;;;;;;;;5130627;27;20047;-65
2022/01/17 14:48:55;;;;;;;23.92;3.70;;;;;;;;;;5130535;27;20175;-65
2022/01/17 14:51:25;;;;;;;31.15;4.88;;;;;;;;;;5129807;27;20051;-65
2022/01/17 14:53:55;;;;;;;37.65;4.75;;;;;;;;;;5129974;27;20048;-65
2022/01/17 15:02:18;;;;;;;24.45;4.30;;;;;;;;;;5145787;27;20058;-65
2022/01/17 15:04:45;;;;;;;39.97;4.80;;;;;;;;;;5129787;27;20507;-65
2022/01/17 15:07:14;;;;;;;37.35;5.25;;;;;;;;;;5142984;27;20053;-65
2022/01/17 15:09:42;;;;;;;34.28;4.82;;;;;;;;;;5143855;27;20502;-65